No particular awareness of the weather is required.    There are no Weather-warnings


Meteo18 Weather Cam more information Meteo18 Weather Cam


Thunder radar more information blitzortung!


Rain radar more information rain snow radar


Visit our other weather sites:

Template documentation
and downloads

And another site



Weather Underground History page Text

Daily Summary for October 27, 2017 Units:  Both    English   Metric
« Previous Day
Next Day »
Daily Weekly Monthly Yearly Custom
  High: Low: Average:
Temperature: 58.6 °F /  14.8 °C 47.5 °F /  8.6 °C 53.8 °F /  12.1 °C
Dew Point: 56.5 °F /  13.6 °C 43.9 °F /  6.6 °C 51.4 °F /  10.8 °C
Humidity: 97 % 84 % 92 %
Wind Speed: 8 mph /  12.9 km/h - 1.5 mph /  2.4 km/h
Wind Gust: 15 mph /  24.1 km/h - -
Wind:- - SSW
Pressure: 30.5 in /  1034.1 hPa 30.3 in /  1026.3 hPa -
Precipitation: 0.01 in /  0.3 mm    
Historical Graphs
 
 
Tabular Data for October 27, 2017
Time Temperature Dew Point Pressure Wind Wind Speed Wind Gust Humidity Rainfall Rate (Hourly)
00:02 58.3 °F /  14.6 °C 55.6 °F /  13.1 °C 30.3 in /  1026.6 hPa NNW 2 mph /  3.2 km/h 4 mph /  6.4 km/h 91 % 0 in /  0.0 mm
00:12 58.6 °F /  14.8 °C 55.8 °F /  13.2 °C 30.3 in /  1026.6 hPa NW 2 mph /  3.2 km/h 4 mph /  6.4 km/h 90 % 0 in /  0.0 mm
00:17 58.6 °F /  14.8 °C 55.8 °F /  13.2 °C 30.3 in /  1026.6 hPa NW 2 mph /  3.2 km/h 4 mph /  6.4 km/h 90 % 0 in /  0.0 mm
00:22 58.6 °F /  14.8 °C 55.8 °F /  13.2 °C 30.3 in /  1026.3 hPa NW 2 mph /  3.2 km/h 4 mph /  6.4 km/h 90 % 0 in /  0.0 mm
00:32 58.6 °F /  14.8 °C 55.8 °F /  13.2 °C 30.3 in /  1026.3 hPa WNW 2 mph /  3.2 km/h 5 mph /  8.0 km/h 90 % 0 in /  0.0 mm
00:37 58.6 °F /  14.8 °C 55.9 °F /  13.3 °C 30.3 in /  1026.3 hPa WNW 1 mph /  1.6 km/h 5 mph /  8.0 km/h 91 % 0 in /  0.0 mm
00:42 58.5 °F /  14.7 °C 55.8 °F /  13.2 °C 30.3 in /  1026.3 hPa NW 3 mph /  4.8 km/h 5 mph /  8.0 km/h 91 % 0 in /  0.0 mm
00:52 58.5 °F /  14.7 °C 56.1 °F /  13.4 °C 30.3 in /  1026.3 hPa WNW 1 mph /  1.6 km/h 4 mph /  6.4 km/h 92 % 0 in /  0.0 mm
00:57 58.3 °F /  14.6 °C 55.9 °F /  13.3 °C 30.3 in /  1026.3 hPa Calm   3 mph /  4.8 km/h 92 % 0 in /  0.0 mm
01:02 58.3 °F /  14.6 °C 55.9 °F /  13.3 °C 30.3 in /  1026.6 hPa Calm   3 mph /  4.8 km/h 92 % 0 in /  0.0 mm
01:07 57.9 °F /  14.4 °C 55.9 °F /  13.3 °C 30.3 in /  1026.6 hPa WNW 1 mph /  1.6 km/h 3 mph /  4.8 km/h 93 % 0 in /  0.0 mm
01:12 57.9 °F /  14.4 °C 55.9 °F /  13.3 °C 30.3 in /  1026.3 hPa NW 2 mph /  3.2 km/h 3 mph /  4.8 km/h 93 % 0 in /  0.0 mm
01:17 58.1 °F /  14.5 °C 56.1 °F /  13.4 °C 30.3 in /  1026.6 hPa Calm   3 mph /  4.8 km/h 93 % 0 in /  0.0 mm
01:22 58.3 °F /  14.6 °C 56.5 °F /  13.6 °C 30.3 in /  1026.3 hPa WNW 1 mph /  1.6 km/h 3 mph /  4.8 km/h 94 % 0 in /  0.0 mm
01:27 57.9 °F /  14.4 °C 55.9 °F /  13.3 °C 30.3 in /  1026.3 hPa Calm   4 mph /  6.4 km/h 93 % 0 in /  0.0 mm
01:32 57.6 °F /  14.2 °C 55.6 °F /  13.1 °C 30.3 in /  1026.6 hPa Calm   4 mph /  6.4 km/h 93 % 0 in /  0.0 mm
01:42 57.6 °F /  14.2 °C 55.8 °F /  13.2 °C 30.3 in /  1026.6 hPa Calm   1 mph /  1.6 km/h 94 % 0 in /  0.0 mm
01:47 57.4 °F /  14.1 °C 55.6 °F /  13.1 °C 30.3 in /  1026.6 hPa Calm   1 mph /  1.6 km/h 94 % 0 in /  0.0 mm
01:52 57 °F /  13.9 °C 55.2 °F /  12.9 °C 30.3 in /  1026.6 hPa Calm   1 mph /  1.6 km/h 94 % 0 in /  0.0 mm
01:57 57 °F /  13.9 °C 55.2 °F /  12.9 °C 30.3 in /  1026.6 hPa Calm   1 mph /  1.6 km/h 94 % 0 in /  0.0 mm
02:02 57 °F /  13.9 °C 55.6 °F /  13.1 °C 30.3 in /  1026.6 hPa NW 1 mph /  1.6 km/h 1 mph /  1.6 km/h 95 % 0 in /  0.0 mm
02:07 57 °F /  13.9 °C 55.6 °F /  13.1 °C 30.3 in /  1026.6 hPa Calm   1 mph /  1.6 km/h 95 % 0 in /  0.0 mm
02:12 56.8 °F /  13.8 °C 55.4 °F /  13.0 °C 30.3 in /  1026.6 hPa Calm   1 mph /  1.6 km/h 95 % 0 in /  0.0 mm
02:17 56.7 °F /  13.7 °C 55.2 °F /  12.9 °C 30.3 in /  1026.6 hPa Calm   1 mph /  1.6 km/h 95 % 0 in /  0.0 mm
02:22 56.1 °F /  13.4 °C 54.5 °F /  12.5 °C 30.3 in /  1026.6 hPa ENE 1 mph /  1.6 km/h 1 mph /  1.6 km/h 94 % 0 in /  0.0 mm
02:27 56.5 °F /  13.6 °C 55 °F /  12.8 °C 30.3 in /  1026.6 hPa Calm   2 mph /  3.2 km/h 95 % 0 in /  0.0 mm
02:32 55.8 °F /  13.2 °C 54.1 °F /  12.3 °C 30.3 in /  1026.6 hPa Calm   2 mph /  3.2 km/h 94 % 0 in /  0.0 mm
02:37 55.6 °F /  13.1 °C 54.1 °F /  12.3 °C 30.3 in /  1026.6 hPa Calm   2 mph /  3.2 km/h 95 % 0 in /  0.0 mm
02:42 55.6 °F /  13.1 °C 54.1 °F /  12.3 °C 30.3 in /  1026.6 hPa Calm   2 mph /  3.2 km/h 95 % 0 in /  0.0 mm
02:47 55.6 °F /  13.1 °C 54.1 °F /  12.3 °C 30.3 in /  1026.6 hPa Calm   1 mph /  1.6 km/h 95 % 0 in /  0.0 mm
02:52 55.4 °F /  13.0 °C 54 °F /  12.2 °C 30.3 in /  1026.6 hPa Calm   1 mph /  1.6 km/h 95 % 0 in /  0.0 mm
02:57 55.2 °F /  12.9 °C 53.8 °F /  12.1 °C 30.3 in /  1027.0 hPa North 1 mph /  1.6 km/h 1 mph /  1.6 km/h 95 % 0 in /  0.0 mm
03:02 55 °F /  12.8 °C 54 °F /  12.2 °C 30.3 in /  1026.6 hPa NNE 1 mph /  1.6 km/h 1 mph /  1.6 km/h 96 % 0 in /  0.0 mm
03:07 55.4 °F /  13.0 °C 54.3 °F /  12.4 °C 30.3 in /  1027.0 hPa NNW 1 mph /  1.6 km/h 3 mph /  4.8 km/h 96 % 0 in /  0.0 mm
03:12 55.6 °F /  13.1 °C 54.5 °F /  12.5 °C 30.3 in /  1027.0 hPa North 1 mph /  1.6 km/h 3 mph /  4.8 km/h 96 % 0 in /  0.0 mm
03:22 55.6 °F /  13.1 °C 54.5 °F /  12.5 °C 30.3 in /  1027.0 hPa NNW 1 mph /  1.6 km/h 2 mph /  3.2 km/h 96 % 0 in /  0.0 mm
03:27 55.6 °F /  13.1 °C 54.5 °F /  12.5 °C 30.3 in /  1027.0 hPa Calm   3 mph /  4.8 km/h 96 % 0 in /  0.0 mm
03:32 54.3 °F /  12.4 °C 52.7 °F /  11.5 °C 30.3 in /  1027.0 hPa Calm   3 mph /  4.8 km/h 94 % 0 in /  0.0 mm
03:37 54.1 °F /  12.3 °C 52.7 °F /  11.5 °C 30.3 in /  1027.0 hPa Calm   1 mph /  1.6 km/h 95 % 0 in /  0.0 mm
03:42 54.1 °F /  12.3 °C 53.1 °F /  11.7 °C 30.3 in /  1027.0 hPa Calm   1 mph /  1.6 km/h 96 % 0 in /  0.0 mm
03:47 54.1 °F /  12.3 °C 53.1 °F /  11.7 °C 30.3 in /  1027.0 hPa Calm   1 mph /  1.6 km/h 96 % 0 in /  0.0 mm
03:52 54 °F /  12.2 °C 52.9 °F /  11.6 °C 30.3 in /  1027.0 hPa Calm   1 mph /  1.6 km/h 96 % 0 in /  0.0 mm
04:02 53.4 °F /  11.9 °C 52 °F /  11.1 °C 30.3 in /  1027.0 hPa Calm   1 mph /  1.6 km/h 95 % 0 in /  0.0 mm
04:07 52.9 °F /  11.6 °C 51.4 °F /  10.8 °C 30.3 in /  1027.0 hPa Calm   1 mph /  1.6 km/h 95 % 0 in /  0.0 mm
04:12 52.9 °F /  11.6 °C 51.8 °F /  11.0 °C 30.3 in /  1027.0 hPa Calm   1 mph /  1.6 km/h 96 % 0 in /  0.0 mm
04:17 52.3 °F /  11.3 °C 50.9 °F /  10.5 °C 30.3 in /  1027.0 hPa Calm   2 mph /  3.2 km/h 95 % 0 in /  0.0 mm
04:22 50.9 °F /  10.5 °C 48.9 °F /  9.4 °C 30.3 in /  1027.0 hPa Calm   2 mph /  3.2 km/h 93 % 0 in /  0.0 mm
04:27 50 °F /  10.0 °C 48.4 °F /  9.1 °C 30.3 in /  1027.0 hPa Calm   1 mph /  1.6 km/h 94 % 0 in /  0.0 mm
04:32 49.8 °F /  9.9 °C 48.7 °F /  9.3 °C 30.3 in /  1027.3 hPa SSE 1 mph /  1.6 km/h 1 mph /  1.6 km/h 96 % 0 in /  0.0 mm
04:37 49.6 °F /  9.8 °C 48.2 °F /  9.0 °C 30.3 in /  1027.3 hPa NE 2 mph /  3.2 km/h 2 mph /  3.2 km/h 95 % 0 in /  0.0 mm
04:42 49.6 °F /  9.8 °C 48.6 °F /  9.2 °C 30.3 in /  1027.3 hPa Calm   2 mph /  3.2 km/h 96 % 0 in /  0.0 mm
04:47 49.6 °F /  9.8 °C 48.6 °F /  9.2 °C 30.3 in /  1027.3 hPa Calm   3 mph /  4.8 km/h 96 % 0 in /  0.0 mm
04:52 49.6 °F /  9.8 °C 48.6 °F /  9.2 °C 30.3 in /  1027.0 hPa Calm   3 mph /  4.8 km/h 96 % 0 in /  0.0 mm
04:57 50 °F /  10.0 °C 48.9 °F /  9.4 °C 30.3 in /  1027.3 hPa Calm   3 mph /  4.8 km/h 96 % 0 in /  0.0 mm
05:02 50 °F /  10.0 °C 48.9 °F /  9.4 °C 30.3 in /  1027.3 hPa Calm   3 mph /  4.8 km/h 96 % 0 in /  0.0 mm
05:07 49.8 °F /  9.9 °C 48.7 °F /  9.3 °C 30.3 in /  1027.3 hPa Calm   2 mph /  3.2 km/h 96 % 0 in /  0.0 mm
05:12 50.2 °F /  10.1 °C 49.1 °F /  9.5 °C 30.3 in /  1027.3 hPa North 1 mph /  1.6 km/h 2 mph /  3.2 km/h 96 % 0 in /  0.0 mm
05:22 50.9 °F /  10.5 °C 50 °F /  10.0 °C 30.4 in /  1027.7 hPa NNW 1 mph /  1.6 km/h 2 mph /  3.2 km/h 97 % 0 in /  0.0 mm
05:32 51.3 °F /  10.7 °C 50.4 °F /  10.2 °C 30.4 in /  1027.7 hPa North 2 mph /  3.2 km/h 3 mph /  4.8 km/h 97 % 0 in /  0.0 mm
05:37 51.6 °F /  10.9 °C 50.7 °F /  10.4 °C 30.4 in /  1027.7 hPa NW 3 mph /  4.8 km/h 3 mph /  4.8 km/h 97 % 0 in /  0.0 mm
05:42 52 °F /  11.1 °C 51.1 °F /  10.6 °C 30.4 in /  1027.7 hPa NNE 5 mph /  8.0 km/h 5 mph /  8.0 km/h 97 % 0 in /  0.0 mm
05:47 52.2 °F /  11.2 °C 51.3 °F /  10.7 °C 30.4 in /  1027.7 hPa NNE 1 mph /  1.6 km/h 7 mph /  11.3 km/h 97 % 0 in /  0.0 mm
05:52 52 °F /  11.1 °C 51.1 °F /  10.6 °C 30.4 in /  1027.7 hPa North 3 mph /  4.8 km/h 7 mph /  11.3 km/h 97 % 0 in /  0.0 mm
06:02 51.8 °F /  11.0 °C 50.7 °F /  10.4 °C 30.4 in /  1027.7 hPa North 3 mph /  4.8 km/h 8 mph /  12.9 km/h 96 % 0.01 in /  0.3 mm
06:07 51.6 °F /  10.9 °C 50.7 °F /  10.4 °C 30.4 in /  1027.7 hPa North 1 mph /  1.6 km/h 6 mph /  9.7 km/h 97 % 0.01 in /  0.3 mm
06:12 51.6 °F /  10.9 °C 50.7 °F /  10.4 °C 30.4 in /  1028.0 hPa North 1 mph /  1.6 km/h 6 mph /  9.7 km/h 97 % 0.01 in /  0.3 mm
06:17 51.8 °F /  11.0 °C 50.9 °F /  10.5 °C 30.4 in /  1028.0 hPa NNW 2 mph /  3.2 km/h 6 mph /  9.7 km/h 97 % 0.01 in /  0.3 mm
06:22 51.8 °F /  11.0 °C 50.9 °F /  10.5 °C 30.4 in /  1028.0 hPa North 3 mph /  4.8 km/h 6 mph /  9.7 km/h 97 % 0.01 in /  0.3 mm
06:27 51.8 °F /  11.0 °C 50.9 °F /  10.5 °C 30.4 in /  1028.0 hPa NNE 2 mph /  3.2 km/h 6 mph /  9.7 km/h 97 % 0.01 in /  0.3 mm
06:32 51.8 °F /  11.0 °C 50.9 °F /  10.5 °C 30.4 in /  1028.0 hPa Calm   6 mph /  9.7 km/h 97 % 0.01 in /  0.3 mm
06:42 52 °F /  11.1 °C 51.1 °F /  10.6 °C 30.4 in /  1028.0 hPa North 2 mph /  3.2 km/h 6 mph /  9.7 km/h 97 % 0.01 in /  0.3 mm
06:47 52 °F /  11.1 °C 51.1 °F /  10.6 °C 30.4 in /  1028.0 hPa Calm   4 mph /  6.4 km/h 97 % 0.01 in /  0.3 mm
06:52 52 °F /  11.1 °C 51.1 °F /  10.6 °C 30.4 in /  1028.3 hPa North 1 mph /  1.6 km/h 4 mph /  6.4 km/h 97 % 0.01 in /  0.3 mm
06:57 52 °F /  11.1 °C 51.1 °F /  10.6 °C 30.4 in /  1028.3 hPa North 1 mph /  1.6 km/h 4 mph /  6.4 km/h 97 % 0 in /  0.0 mm
07:02 52 °F /  11.1 °C 51.1 °F /  10.6 °C 30.4 in /  1028.3 hPa Calm   4 mph /  6.4 km/h 97 % 0 in /  0.0 mm
07:07 52.2 °F /  11.2 °C 51.3 °F /  10.7 °C 30.4 in /  1028.3 hPa Calm   3 mph /  4.8 km/h 97 % 0 in /  0.0 mm
07:12 52.2 °F /  11.2 °C 51.3 °F /  10.7 °C 30.4 in /  1028.3 hPa Calm   3 mph /  4.8 km/h 97 % 0 in /  0.0 mm
07:17 52.2 °F /  11.2 °C 51.3 °F /  10.7 °C 30.4 in /  1028.3 hPa Calm   1 mph /  1.6 km/h 97 % 0 in /  0.0 mm
07:22 52 °F /  11.1 °C 51.1 °F /  10.6 °C 30.4 in /  1028.3 hPa Calm   1 mph /  1.6 km/h 97 % 0 in /  0.0 mm
07:32 51.8 °F /  11.0 °C 50.9 °F /  10.5 °C 30.4 in /  1028.3 hPa Calm     97 % 0 in /  0.0 mm
07:42 51.6 °F /  10.9 °C 50.7 °F /  10.4 °C 30.4 in /  1028.3 hPa Calm     97 % 0 in /  0.0 mm
07:47 51.6 °F /  10.9 °C 50.7 °F /  10.4 °C 30.4 in /  1028.7 hPa Calm     97 % 0 in /  0.0 mm
07:57 51.4 °F /  10.8 °C 50.5 °F /  10.3 °C 30.4 in /  1028.7 hPa Calm   2 mph /  3.2 km/h 97 % 0 in /  0.0 mm
08:12 51.6 °F /  10.9 °C 50.7 °F /  10.4 °C 30.4 in /  1029.0 hPa Calm   2 mph /  3.2 km/h 97 % 0 in /  0.0 mm
08:17 51.6 °F /  10.9 °C 50.7 °F /  10.4 °C 30.4 in /  1029.0 hPa NNE 2 mph /  3.2 km/h 5 mph /  8.0 km/h 97 % 0 in /  0.0 mm
08:22 51.6 °F /  10.9 °C 50.7 °F /  10.4 °C 30.4 in /  1029.0 hPa NNW 3 mph /  4.8 km/h 5 mph /  8.0 km/h 97 % 0 in /  0.0 mm
08:32 51.8 °F /  11.0 °C 50.7 °F /  10.4 °C 30.4 in /  1029.0 hPa NNW 3 mph /  4.8 km/h 5 mph /  8.0 km/h 96 % 0 in /  0.0 mm
08:42 52 °F /  11.1 °C 50.9 °F /  10.5 °C 30.4 in /  1029.0 hPa NNE 7 mph /  11.3 km/h 7 mph /  11.3 km/h 96 % 0 in /  0.0 mm
08:47 52 °F /  11.1 °C 50.9 °F /  10.5 °C 30.4 in /  1029.3 hPa NNW 3 mph /  4.8 km/h 7 mph /  11.3 km/h 96 % 0 in /  0.0 mm
08:52 52 °F /  11.1 °C 50.5 °F /  10.3 °C 30.4 in /  1029.3 hPa NW 1 mph /  1.6 km/h 7 mph /  11.3 km/h 95 % 0 in /  0.0 mm
09:02 52.2 °F /  11.2 °C 50.7 °F /  10.4 °C 30.4 in /  1029.3 hPa NNW 1 mph /  1.6 km/h 10 mph /  16.1 km/h 95 % 0 in /  0.0 mm
09:07 52.2 °F /  11.2 °C 50.7 °F /  10.4 °C 30.4 in /  1029.7 hPa NNW 4 mph /  6.4 km/h 6 mph /  9.7 km/h 95 % 0 in /  0.0 mm
09:12 52.2 °F /  11.2 °C 50.7 °F /  10.4 °C 30.4 in /  1029.7 hPa West 1 mph /  1.6 km/h 6 mph /  9.7 km/h 95 % 0 in /  0.0 mm
09:17 52.3 °F /  11.3 °C 50.7 °F /  10.4 °C 30.4 in /  1029.7 hPa NNW 2 mph /  3.2 km/h 7 mph /  11.3 km/h 94 % 0 in /  0.0 mm
09:22 52.3 °F /  11.3 °C 50.7 °F /  10.4 °C 30.4 in /  1030.0 hPa North 3 mph /  4.8 km/h 7 mph /  11.3 km/h 94 % 0 in /  0.0 mm
09:32 52.5 °F /  11.4 °C 50.9 °F /  10.5 °C 30.4 in /  1030.0 hPa NNW 2 mph /  3.2 km/h 7 mph /  11.3 km/h 94 % 0 in /  0.0 mm
09:37 52.7 °F /  11.5 °C 50.7 °F /  10.4 °C 30.4 in /  1030.4 hPa North 2 mph /  3.2 km/h 7 mph /  11.3 km/h 93 % 0 in /  0.0 mm
09:42 52.7 °F /  11.5 °C 50.7 °F /  10.4 °C 30.4 in /  1030.4 hPa North 5 mph /  8.0 km/h 7 mph /  11.3 km/h 93 % 0 in /  0.0 mm
09:47 52.9 °F /  11.6 °C 50.9 °F /  10.5 °C 30.4 in /  1030.4 hPa NNE 2 mph /  3.2 km/h 5 mph /  8.0 km/h 93 % 0 in /  0.0 mm
09:52 52.9 °F /  11.6 °C 50.9 °F /  10.5 °C 30.4 in /  1030.4 hPa NW 1 mph /  1.6 km/h 5 mph /  8.0 km/h 93 % 0 in /  0.0 mm
10:02 53.1 °F /  11.7 °C 51.1 °F /  10.6 °C 30.4 in /  1030.4 hPa Calm   5 mph /  8.0 km/h 93 % 0 in /  0.0 mm
10:12 53.1 °F /  11.7 °C 51.1 °F /  10.6 °C 30.4 in /  1030.4 hPa North 1 mph /  1.6 km/h 4 mph /  6.4 km/h 93 % 0 in /  0.0 mm
10:17 53.2 °F /  11.8 °C 51.3 °F /  10.7 °C 30.4 in /  1030.4 hPa Calm   4 mph /  6.4 km/h 93 % 0 in /  0.0 mm
10:22 53.2 °F /  11.8 °C 51.3 °F /  10.7 °C 30.4 in /  1030.4 hPa WSW 1 mph /  1.6 km/h 4 mph /  6.4 km/h 93 % 0 in /  0.0 mm
10:32 53.2 °F /  11.8 °C 51.3 °F /  10.7 °C 30.4 in /  1030.4 hPa WNW 1 mph /  1.6 km/h 2 mph /  3.2 km/h 93 % 0 in /  0.0 mm
10:42 53.4 °F /  11.9 °C 51.4 °F /  10.8 °C 30.4 in /  1030.4 hPa Calm   2 mph /  3.2 km/h 93 % 0 in /  0.0 mm
10:47 53.6 °F /  12.0 °C 51.3 °F /  10.7 °C 30.4 in /  1030.4 hPa West 1 mph /  1.6 km/h 2 mph /  3.2 km/h 92 % 0 in /  0.0 mm
10:52 53.6 °F /  12.0 °C 51.3 °F /  10.7 °C 30.4 in /  1030.4 hPa WSW 1 mph /  1.6 km/h 2 mph /  3.2 km/h 92 % 0 in /  0.0 mm
10:57 53.8 °F /  12.1 °C 51.4 °F /  10.8 °C 30.4 in /  1030.4 hPa Calm   2 mph /  3.2 km/h 92 % 0 in /  0.0 mm
11:02 53.8 °F /  12.1 °C 51.4 °F /  10.8 °C 30.4 in /  1030.4 hPa West 1 mph /  1.6 km/h 2 mph /  3.2 km/h 92 % 0 in /  0.0 mm
11:12 53.8 °F /  12.1 °C 51.4 °F /  10.8 °C 30.4 in /  1030.7 hPa Calm   2 mph /  3.2 km/h 92 % 0 in /  0.0 mm
11:17 53.8 °F /  12.1 °C 51.4 °F /  10.8 °C 30.4 in /  1030.7 hPa WNW 1 mph /  1.6 km/h 2 mph /  3.2 km/h 92 % 0 in /  0.0 mm
11:22 53.8 °F /  12.1 °C 51.8 °F /  11.0 °C 30.4 in /  1031.0 hPa Calm   2 mph /  3.2 km/h 93 % 0 in /  0.0 mm
11:32 54.1 °F /  12.3 °C 51.8 °F /  11.0 °C 30.4 in /  1031.0 hPa NNW 4 mph /  6.4 km/h 4 mph /  6.4 km/h 92 % 0 in /  0.0 mm
11:42 54.3 °F /  12.4 °C 52 °F /  11.1 °C 30.4 in /  1031.0 hPa WNW 1 mph /  1.6 km/h 4 mph /  6.4 km/h 92 % 0 in /  0.0 mm
11:47 54.5 °F /  12.5 °C 52.2 °F /  11.2 °C 30.4 in /  1031.0 hPa Calm   5 mph /  8.0 km/h 92 % 0 in /  0.0 mm
11:52 54.7 °F /  12.6 °C 52.3 °F /  11.3 °C 30.4 in /  1031.0 hPa NW 1 mph /  1.6 km/h 5 mph /  8.0 km/h 92 % 0 in /  0.0 mm
11:57 54.9 °F /  12.7 °C 52.5 °F /  11.4 °C 30.5 in /  1031.4 hPa NNW 3 mph /  4.8 km/h 4 mph /  6.4 km/h 92 % 0 in /  0.0 mm
12:02 54.9 °F /  12.7 °C 52.5 °F /  11.4 °C 30.5 in /  1031.4 hPa NNE 3 mph /  4.8 km/h 4 mph /  6.4 km/h 92 % 0 in /  0.0 mm
12:07 54.9 °F /  12.7 °C 52.5 °F /  11.4 °C 30.5 in /  1031.4 hPa NNW 1 mph /  1.6 km/h 6 mph /  9.7 km/h 92 % 0 in /  0.0 mm
12:12 54.9 °F /  12.7 °C 52.5 °F /  11.4 °C 30.5 in /  1031.4 hPa WNW 2 mph /  3.2 km/h 6 mph /  9.7 km/h 92 % 0 in /  0.0 mm
12:17 54.9 °F /  12.7 °C 52.5 °F /  11.4 °C 30.5 in /  1031.4 hPa NNE 5 mph /  8.0 km/h 9 mph /  14.5 km/h 92 % 0 in /  0.0 mm
12:22 54.9 °F /  12.7 °C 52.5 °F /  11.4 °C 30.5 in /  1031.4 hPa NE 4 mph /  6.4 km/h 9 mph /  14.5 km/h 92 % 0 in /  0.0 mm
12:27 55 °F /  12.8 °C 52.7 °F /  11.5 °C 30.5 in /  1031.7 hPa North 5 mph /  8.0 km/h 8 mph /  12.9 km/h 92 % 0 in /  0.0 mm
12:32 55 °F /  12.8 °C 52.7 °F /  11.5 °C 30.5 in /  1031.7 hPa NNW 2 mph /  3.2 km/h 8 mph /  12.9 km/h 92 % 0 in /  0.0 mm
12:42 55.2 °F /  12.9 °C 52.9 °F /  11.6 °C 30.5 in /  1031.7 hPa NNE 2 mph /  3.2 km/h 7 mph /  11.3 km/h 92 % 0 in /  0.0 mm
12:47 55.2 °F /  12.9 °C 52.9 °F /  11.6 °C 30.5 in /  1031.4 hPa Calm   6 mph /  9.7 km/h 92 % 0 in /  0.0 mm
12:52 55.2 °F /  12.9 °C 52.9 °F /  11.6 °C 30.5 in /  1031.4 hPa WNW 1 mph /  1.6 km/h 6 mph /  9.7 km/h 92 % 0 in /  0.0 mm
12:57 55.2 °F /  12.9 °C 52.9 °F /  11.6 °C 30.5 in /  1031.7 hPa WNW 2 mph /  3.2 km/h 5 mph /  8.0 km/h 92 % 0 in /  0.0 mm
13:02 55.2 °F /  12.9 °C 53.2 °F /  11.8 °C 30.5 in /  1031.4 hPa WNW 3 mph /  4.8 km/h 5 mph /  8.0 km/h 93 % 0 in /  0.0 mm
13:07 55.6 °F /  13.1 °C 53.6 °F /  12.0 °C 30.5 in /  1031.7 hPa WNW 1 mph /  1.6 km/h 5 mph /  8.0 km/h 93 % 0 in /  0.0 mm
13:12 55.6 °F /  13.1 °C 53.2 °F /  11.8 °C 30.5 in /  1031.7 hPa West 1 mph /  1.6 km/h 5 mph /  8.0 km/h 92 % 0 in /  0.0 mm
13:17 55.8 °F /  13.2 °C 53.4 °F /  11.9 °C 30.5 in /  1031.7 hPa NW 2 mph /  3.2 km/h 4 mph /  6.4 km/h 92 % 0 in /  0.0 mm
13:22 56.1 °F /  13.4 °C 53.8 °F /  12.1 °C 30.5 in /  1031.7 hPa NW 2 mph /  3.2 km/h 4 mph /  6.4 km/h 92 % 0 in /  0.0 mm
13:27 56.1 °F /  13.4 °C 53.8 °F /  12.1 °C 30.5 in /  1031.7 hPa NW 5 mph /  8.0 km/h 6 mph /  9.7 km/h 92 % 0 in /  0.0 mm
13:32 55.9 °F /  13.3 °C 53.6 °F /  12.0 °C 30.5 in /  1032.1 hPa NNW 1 mph /  1.6 km/h 6 mph /  9.7 km/h 92 % 0 in /  0.0 mm
13:37 55.9 °F /  13.3 °C 53.6 °F /  12.0 °C 30.5 in /  1031.7 hPa NW 1 mph /  1.6 km/h 7 mph /  11.3 km/h 92 % 0 in /  0.0 mm
13:42 56.1 °F /  13.4 °C 53.8 °F /  12.1 °C 30.5 in /  1031.7 hPa NNE 4 mph /  6.4 km/h 7 mph /  11.3 km/h 92 % 0 in /  0.0 mm
13:52 56.1 °F /  13.4 °C 53.8 °F /  12.1 °C 30.5 in /  1031.7 hPa NNW 2 mph /  3.2 km/h 11 mph /  17.7 km/h 92 % 0 in /  0.0 mm
14:02 56.3 °F /  13.5 °C 54 °F /  12.2 °C 30.5 in /  1031.7 hPa NNW 4 mph /  6.4 km/h 13 mph /  20.9 km/h 92 % 0 in /  0.0 mm
14:12 56.3 °F /  13.5 °C 54 °F /  12.2 °C 30.5 in /  1031.7 hPa NNW 3 mph /  4.8 km/h 11 mph /  17.7 km/h 92 % 0 in /  0.0 mm
14:22 56.3 °F /  13.5 °C 54 °F /  12.2 °C 30.5 in /  1031.7 hPa NNE 4 mph /  6.4 km/h 8 mph /  12.9 km/h 92 % 0 in /  0.0 mm
14:32 56.1 °F /  13.4 °C 53.8 °F /  12.1 °C 30.5 in /  1031.7 hPa NNE 2 mph /  3.2 km/h 11 mph /  17.7 km/h 92 % 0 in /  0.0 mm
14:42 56.1 °F /  13.4 °C 53.8 °F /  12.1 °C 30.5 in /  1031.7 hPa North 7 mph /  11.3 km/h 11 mph /  17.7 km/h 92 % 0 in /  0.0 mm
14:52 56.5 °F /  13.6 °C 54.1 °F /  12.3 °C 30.5 in /  1031.7 hPa North 8 mph /  12.9 km/h 8 mph /  12.9 km/h 92 % 0 in /  0.0 mm
15:02 56.7 °F /  13.7 °C 54.1 °F /  12.3 °C 30.5 in /  1031.7 hPa North 5 mph /  8.0 km/h 9 mph /  14.5 km/h 91 % 0 in /  0.0 mm
15:07 56.7 °F /  13.7 °C 54.1 °F /  12.3 °C 30.5 in /  1031.7 hPa North 3 mph /  4.8 km/h 12 mph /  19.3 km/h 91 % 0 in /  0.0 mm
15:12 56.7 °F /  13.7 °C 54.1 °F /  12.3 °C 30.5 in /  1031.7 hPa North 5 mph /  8.0 km/h 12 mph /  19.3 km/h 91 % 0 in /  0.0 mm
15:22 56.8 °F /  13.8 °C 54.5 °F /  12.5 °C 30.5 in /  1031.7 hPa North 3 mph /  4.8 km/h 12 mph /  19.3 km/h 92 % 0 in /  0.0 mm
15:32 57 °F /  13.9 °C 54.7 °F /  12.6 °C 30.5 in /  1031.7 hPa NNE 5 mph /  8.0 km/h 10 mph /  16.1 km/h 92 % 0 in /  0.0 mm
15:37 57 °F /  13.9 °C 54.7 °F /  12.6 °C 30.5 in /  1031.7 hPa North 4 mph /  6.4 km/h 11 mph /  17.7 km/h 92 % 0 in /  0.0 mm
15:42 56.8 °F /  13.8 °C 54.5 °F /  12.5 °C 30.5 in /  1031.7 hPa North 5 mph /  8.0 km/h 11 mph /  17.7 km/h 92 % 0 in /  0.0 mm
15:47 56.8 °F /  13.8 °C 54.5 °F /  12.5 °C 30.5 in /  1031.7 hPa NNW 3 mph /  4.8 km/h 13 mph /  20.9 km/h 92 % 0 in /  0.0 mm
15:52 56.5 °F /  13.6 °C 54 °F /  12.2 °C 30.5 in /  1031.7 hPa NNE 6 mph /  9.7 km/h 13 mph /  20.9 km/h 91 % 0 in /  0.0 mm
15:57 56.5 °F /  13.6 °C 54 °F /  12.2 °C 30.5 in /  1031.7 hPa NNW 3 mph /  4.8 km/h 15 mph /  24.1 km/h 91 % 0 in /  0.0 mm
16:02 56.5 °F /  13.6 °C 53.6 °F /  12.0 °C 30.5 in /  1031.7 hPa North 6 mph /  9.7 km/h 15 mph /  24.1 km/h 90 % 0 in /  0.0 mm
16:12 56.5 °F /  13.6 °C 53.6 °F /  12.0 °C 30.5 in /  1032.1 hPa North 2 mph /  3.2 km/h 15 mph /  24.1 km/h 90 % 0 in /  0.0 mm
16:17 56.5 °F /  13.6 °C 53.2 °F /  11.8 °C 30.5 in /  1032.1 hPa ENE 1 mph /  1.6 km/h 12 mph /  19.3 km/h 89 % 0 in /  0.0 mm
16:22 56.5 °F /  13.6 °C 53.2 °F /  11.8 °C 30.5 in /  1032.1 hPa North 3 mph /  4.8 km/h 12 mph /  19.3 km/h 89 % 0 in /  0.0 mm
16:27 56.7 °F /  13.7 °C 53.4 °F /  11.9 °C 30.5 in /  1032.1 hPa NE 2 mph /  3.2 km/h 10 mph /  16.1 km/h 89 % 0 in /  0.0 mm
16:32 56.7 °F /  13.7 °C 53.4 °F /  11.9 °C 30.5 in /  1032.1 hPa North 4 mph /  6.4 km/h 10 mph /  16.1 km/h 89 % 0 in /  0.0 mm
16:37 56.8 °F /  13.8 °C 53.6 °F /  12.0 °C 30.5 in /  1032.1 hPa NE 3 mph /  4.8 km/h 9 mph /  14.5 km/h 89 % 0 in /  0.0 mm
16:42 56.8 °F /  13.8 °C 53.2 °F /  11.8 °C 30.5 in /  1032.1 hPa NE 2 mph /  3.2 km/h 9 mph /  14.5 km/h 88 % 0 in /  0.0 mm
16:47 56.8 °F /  13.8 °C 53.1 °F /  11.7 °C 30.5 in /  1032.1 hPa NE 4 mph /  6.4 km/h 8 mph /  12.9 km/h 87 % 0 in /  0.0 mm
16:52 57 °F /  13.9 °C 53.2 °F /  11.8 °C 30.5 in /  1032.1 hPa North 3 mph /  4.8 km/h 8 mph /  12.9 km/h 87 % 0 in /  0.0 mm
16:57 56.8 °F /  13.8 °C 52.7 °F /  11.5 °C 30.5 in /  1032.1 hPa NE 5 mph /  8.0 km/h 10 mph /  16.1 km/h 86 % 0 in /  0.0 mm
17:12 56.8 °F /  13.8 °C 52.7 °F /  11.5 °C 30.5 in /  1032.1 hPa NNE 3 mph /  4.8 km/h 8 mph /  12.9 km/h 86 % 0 in /  0.0 mm
17:17 57 °F /  13.9 °C 52.5 °F /  11.4 °C 30.5 in /  1032.1 hPa NE 3 mph /  4.8 km/h 7 mph /  11.3 km/h 85 % 0 in /  0.0 mm
17:22 57.2 °F /  14.0 °C 52.7 °F /  11.5 °C 30.5 in /  1032.1 hPa ENE 2 mph /  3.2 km/h 7 mph /  11.3 km/h 85 % 0 in /  0.0 mm
17:27 57.2 °F /  14.0 °C 52.3 °F /  11.3 °C 30.5 in /  1032.1 hPa North 2 mph /  3.2 km/h 7 mph /  11.3 km/h 84 % 0 in /  0.0 mm
17:32 57.2 °F /  14.0 °C 52.3 °F /  11.3 °C 30.5 in /  1032.1 hPa NE 2 mph /  3.2 km/h 7 mph /  11.3 km/h 84 % 0 in /  0.0 mm
17:37 57.2 °F /  14.0 °C 52.3 °F /  11.3 °C 30.5 in /  1032.1 hPa North 3 mph /  4.8 km/h 7 mph /  11.3 km/h 84 % 0 in /  0.0 mm
17:42 57.2 °F /  14.0 °C 52.3 °F /  11.3 °C 30.5 in /  1032.1 hPa North 2 mph /  3.2 km/h 7 mph /  11.3 km/h 84 % 0 in /  0.0 mm
17:47 57 °F /  13.9 °C 52.5 °F /  11.4 °C 30.5 in /  1032.1 hPa NE 2 mph /  3.2 km/h 5 mph /  8.0 km/h 85 % 0 in /  0.0 mm
17:52 57 °F /  13.9 °C 52.5 °F /  11.4 °C 30.5 in /  1032.1 hPa North 4 mph /  6.4 km/h 5 mph /  8.0 km/h 85 % 0 in /  0.0 mm
17:57 56.8 °F /  13.8 °C 52.3 °F /  11.3 °C 30.5 in /  1032.1 hPa Calm   5 mph /  8.0 km/h 85 % 0 in /  0.0 mm
18:02 56.8 °F /  13.8 °C 52.3 °F /  11.3 °C 30.5 in /  1032.1 hPa North 2 mph /  3.2 km/h 5 mph /  8.0 km/h 85 % 0 in /  0.0 mm
18:12 56.7 °F /  13.7 °C 52.2 °F /  11.2 °C 30.5 in /  1032.1 hPa NE 1 mph /  1.6 km/h 5 mph /  8.0 km/h 85 % 0 in /  0.0 mm
18:17 56.7 °F /  13.7 °C 52.2 °F /  11.2 °C 30.5 in /  1032.4 hPa Calm   3 mph /  4.8 km/h 85 % 0 in /  0.0 mm
18:22 56.7 °F /  13.7 °C 52.2 °F /  11.2 °C 30.5 in /  1032.4 hPa Calm   3 mph /  4.8 km/h 85 % 0 in /  0.0 mm
18:27 56.7 °F /  13.7 °C 52.2 °F /  11.2 °C 30.5 in /  1032.4 hPa Calm   3 mph /  4.8 km/h 85 % 0 in /  0.0 mm
18:32 56.1 °F /  13.4 °C 51.6 °F /  10.9 °C 30.5 in /  1032.4 hPa Calm   1 mph /  1.6 km/h 85 % 0 in /  0.0 mm
18:37 55.6 °F /  13.1 °C 51.4 °F /  10.8 °C 30.5 in /  1032.4 hPa Calm   1 mph /  1.6 km/h 86 % 0 in /  0.0 mm
18:42 54.9 °F /  12.7 °C 51.1 °F /  10.6 °C 30.5 in /  1032.4 hPa Calm   1 mph /  1.6 km/h 87 % 0 in /  0.0 mm
18:47 54.3 °F /  12.4 °C 50.9 °F /  10.5 °C 30.5 in /  1032.4 hPa WNW 1 mph /  1.6 km/h 1 mph /  1.6 km/h 88 % 0 in /  0.0 mm
18:52 53.8 °F /  12.1 °C 50.5 °F /  10.3 °C 30.5 in /  1032.4 hPa Calm   1 mph /  1.6 km/h 89 % 0 in /  0.0 mm
19:02 53.2 °F /  11.8 °C 50.7 °F /  10.4 °C 30.5 in /  1032.4 hPa West 1 mph /  1.6 km/h 2 mph /  3.2 km/h 91 % 0 in /  0.0 mm
19:12 52.9 °F /  11.6 °C 50.5 °F /  10.3 °C 30.5 in /  1032.4 hPa Calm   1 mph /  1.6 km/h 92 % 0 in /  0.0 mm
19:17 52.9 °F /  11.6 °C 50.5 °F /  10.3 °C 30.5 in /  1032.7 hPa WNW 1 mph /  1.6 km/h 1 mph /  1.6 km/h 92 % 0 in /  0.0 mm
19:22 52.5 °F /  11.4 °C 50.2 °F /  10.1 °C 30.5 in /  1032.7 hPa Calm   1 mph /  1.6 km/h 92 % 0 in /  0.0 mm
19:27 52.5 °F /  11.4 °C 50.5 °F /  10.3 °C 30.5 in /  1032.7 hPa Calm   1 mph /  1.6 km/h 93 % 0 in /  0.0 mm
19:32 52.5 °F /  11.4 °C 50.5 °F /  10.3 °C 30.5 in /  1032.7 hPa NNW 1 mph /  1.6 km/h 1 mph /  1.6 km/h 93 % 0 in /  0.0 mm
19:42 52.9 °F /  11.6 °C 50.5 °F /  10.3 °C 30.5 in /  1033.1 hPa Calm   3 mph /  4.8 km/h 92 % 0 in /  0.0 mm
19:47 52.5 °F /  11.4 °C 50.2 °F /  10.1 °C 30.5 in /  1033.1 hPa NNW 1 mph /  1.6 km/h 3 mph /  4.8 km/h 92 % 0 in /  0.0 mm
19:52 52.3 °F /  11.3 °C 50 °F /  10.0 °C 30.5 in /  1033.1 hPa NNE 1 mph /  1.6 km/h 3 mph /  4.8 km/h 92 % 0 in /  0.0 mm
19:57 52.2 °F /  11.2 °C 49.8 °F /  9.9 °C 30.5 in /  1033.1 hPa North 2 mph /  3.2 km/h 6 mph /  9.7 km/h 92 % 0 in /  0.0 mm
20:02 52.2 °F /  11.2 °C 49.6 °F /  9.8 °C 30.5 in /  1033.1 hPa NE 2 mph /  3.2 km/h 6 mph /  9.7 km/h 91 % 0 in /  0.0 mm
20:07 52.2 °F /  11.2 °C 49.3 °F /  9.6 °C 30.5 in /  1033.1 hPa North 2 mph /  3.2 km/h 7 mph /  11.3 km/h 90 % 0 in /  0.0 mm
20:12 52.2 °F /  11.2 °C 49.1 °F /  9.5 °C 30.5 in /  1033.4 hPa NNE 2 mph /  3.2 km/h 7 mph /  11.3 km/h 89 % 0 in /  0.0 mm
20:17 52 °F /  11.1 °C 48.9 °F /  9.4 °C 30.5 in /  1033.4 hPa NNE 1 mph /  1.6 km/h 7 mph /  11.3 km/h 89 % 0 in /  0.0 mm
20:22 52 °F /  11.1 °C 48.6 °F /  9.2 °C 30.5 in /  1033.4 hPa NNW 3 mph /  4.8 km/h 7 mph /  11.3 km/h 88 % 0 in /  0.0 mm
20:27 52 °F /  11.1 °C 48.6 °F /  9.2 °C 30.5 in /  1033.4 hPa NE 1 mph /  1.6 km/h 5 mph /  8.0 km/h 88 % 0 in /  0.0 mm
20:32 51.8 °F /  11.0 °C 48.4 °F /  9.1 °C 30.5 in /  1033.4 hPa NNE 2 mph /  3.2 km/h 5 mph /  8.0 km/h 88 % 0 in /  0.0 mm
20:42 51.4 °F /  10.8 °C 48.4 °F /  9.1 °C 30.5 in /  1033.7 hPa Calm   5 mph /  8.0 km/h 89 % 0 in /  0.0 mm
20:47 51.4 °F /  10.8 °C 48.4 °F /  9.1 °C 30.5 in /  1033.7 hPa NE 2 mph /  3.2 km/h 4 mph /  6.4 km/h 89 % 0 in /  0.0 mm
20:52 51.3 °F /  10.7 °C 47.8 °F /  8.8 °C 30.5 in /  1033.7 hPa NNW 1 mph /  1.6 km/h 4 mph /  6.4 km/h 88 % 0 in /  0.0 mm
20:57 51.1 °F /  10.6 °C 48 °F /  8.9 °C 30.5 in /  1033.7 hPa Calm   4 mph /  6.4 km/h 89 % 0 in /  0.0 mm
21:02 50.9 °F /  10.5 °C 47.8 °F /  8.8 °C 30.5 in /  1033.7 hPa North 1 mph /  1.6 km/h 4 mph /  6.4 km/h 89 % 0 in /  0.0 mm
21:12 50.4 °F /  10.2 °C 47.3 °F /  8.5 °C 30.5 in /  1033.7 hPa NNW 1 mph /  1.6 km/h 4 mph /  6.4 km/h 89 % 0 in /  0.0 mm
21:22 50 °F /  10.0 °C 46.9 °F /  8.3 °C 30.5 in /  1033.7 hPa Calm   4 mph /  6.4 km/h 89 % 0 in /  0.0 mm
21:27 49.8 °F /  9.9 °C 46.8 °F /  8.2 °C 30.5 in /  1034.1 hPa North 1 mph /  1.6 km/h 4 mph /  6.4 km/h 89 % 0 in /  0.0 mm
21:32 49.6 °F /  9.8 °C 46.8 °F /  8.2 °C 30.5 in /  1033.7 hPa Calm   4 mph /  6.4 km/h 90 % 0 in /  0.0 mm
21:42 49.3 °F /  9.6 °C 46.4 °F /  8.0 °C 30.5 in /  1034.1 hPa North 1 mph /  1.6 km/h 4 mph /  6.4 km/h 90 % 0 in /  0.0 mm
21:52 49.1 °F /  9.5 °C 46.2 °F /  7.9 °C 30.5 in /  1034.1 hPa NNE 2 mph /  3.2 km/h 5 mph /  8.0 km/h 90 % 0 in /  0.0 mm
21:57 49.3 °F /  9.6 °C 46.4 °F /  8.0 °C 30.5 in /  1034.1 hPa North 4 mph /  6.4 km/h 6 mph /  9.7 km/h 90 % 0 in /  0.0 mm
22:02 49.5 °F /  9.7 °C 46.4 °F /  8.0 °C 30.5 in /  1034.1 hPa North 1 mph /  1.6 km/h 6 mph /  9.7 km/h 89 % 0 in /  0.0 mm
22:12 49.5 °F /  9.7 °C 46.4 °F /  8.0 °C 30.5 in /  1034.1 hPa NE 2 mph /  3.2 km/h 6 mph /  9.7 km/h 89 % 0 in /  0.0 mm
22:17 49.5 °F /  9.7 °C 46.4 °F /  8.0 °C 30.5 in /  1034.1 hPa ENE 2 mph /  3.2 km/h 6 mph /  9.7 km/h 89 % 0 in /  0.0 mm
22:22 49.6 °F /  9.8 °C 46.2 °F /  7.9 °C 30.5 in /  1034.1 hPa NE 2 mph /  3.2 km/h 6 mph /  9.7 km/h 88 % 0 in /  0.0 mm
22:27 49.5 °F /  9.7 °C 46 °F /  7.8 °C 30.5 in /  1034.1 hPa Calm   8 mph /  12.9 km/h 88 % 0 in /  0.0 mm
22:32 49.3 °F /  9.6 °C 45.9 °F /  7.7 °C 30.5 in /  1034.1 hPa NNW 2 mph /  3.2 km/h 8 mph /  12.9 km/h 88 % 0 in /  0.0 mm
22:37 48.9 °F /  9.4 °C 45.5 °F /  7.5 °C 30.5 in /  1034.1 hPa Calm   3 mph /  4.8 km/h 88 % 0 in /  0.0 mm
22:42 48.9 °F /  9.4 °C 45.5 °F /  7.5 °C 30.5 in /  1034.1 hPa NNW 1 mph /  1.6 km/h 3 mph /  4.8 km/h 88 % 0 in /  0.0 mm
22:52 48.7 °F /  9.3 °C 45.3 °F /  7.4 °C 30.5 in /  1034.1 hPa Calm   4 mph /  6.4 km/h 88 % 0 in /  0.0 mm
22:57 48.6 °F /  9.2 °C 45.1 °F /  7.3 °C 30.5 in /  1034.1 hPa Calm   3 mph /  4.8 km/h 88 % 0 in /  0.0 mm
23:02 48.4 °F /  9.1 °C 45 °F /  7.2 °C 30.5 in /  1034.1 hPa Calm   3 mph /  4.8 km/h 88 % 0 in /  0.0 mm
23:12 48.2 °F /  9.0 °C 45.1 °F /  7.3 °C 30.5 in /  1033.7 hPa Calm   2 mph /  3.2 km/h 89 % 0 in /  0.0 mm
23:17 48 °F /  8.9 °C 44.6 °F /  7.0 °C 30.5 in /  1033.7 hPa Calm   1 mph /  1.6 km/h 88 % 0 in /  0.0 mm
23:22 47.8 °F /  8.8 °C 44.8 °F /  7.1 °C 30.5 in /  1033.7 hPa Calm   1 mph /  1.6 km/h 89 % 0 in /  0.0 mm
23:27 48 °F /  8.9 °C 45 °F /  7.2 °C 30.5 in /  1033.7 hPa Calm   2 mph /  3.2 km/h 89 % 0 in /  0.0 mm
23:32 48 °F /  8.9 °C 44.6 °F /  7.0 °C 30.5 in /  1033.7 hPa NW 1 mph /  1.6 km/h 2 mph /  3.2 km/h 88 % 0 in /  0.0 mm
23:37 48 °F /  8.9 °C 44.6 °F /  7.0 °C 30.5 in /  1033.7 hPa Calm   2 mph /  3.2 km/h 88 % 0 in /  0.0 mm
23:42 47.8 °F /  8.8 °C 44.4 °F /  6.9 °C 30.5 in /  1033.7 hPa Calm   2 mph /  3.2 km/h 88 % 0 in /  0.0 mm
23:47 47.8 °F /  8.8 °C 44.4 °F /  6.9 °C 30.5 in /  1033.7 hPa North 1 mph /  1.6 km/h 2 mph /  3.2 km/h 88 % 0 in /  0.0 mm
23:52 47.8 °F /  8.8 °C 44.4 °F /  6.9 °C 30.5 in /  1033.7 hPa North 1 mph /  1.6 km/h 2 mph /  3.2 km/h 88 % 0 in /  0.0 mm
23:57 47.5 °F /  8.6 °C 43.9 °F /  6.6 °C 30.5 in /  1033.7 hPa North 1 mph /  1.6 km/h 2 mph /  3.2 km/h 87 % 0 in /  0.0 mm
Meteo18
Compliments of Weather Underground - 4 mb

Script developed by  Jim McMurry - jmcmurry@mwt.net Adapted for the template by  Wim van der Kuil - Leuven-Template.eu

You find our weather info also at:

European Weather Network

Weather Underground

Equipment we use:

Weather-station
Davis Vue

Weather-program
Meteohub

Weather-server
Raspberry PI 2 B+

Provider
1 and 1

Davis Vue

Meteohub

Raspberry PI 2 B+

1 and 1